Time;durP1;ratioP1;P1;durP2;ratioP2;P2;SDS_P1;SDS_P2;PMS_P1;PMS_P2;Temp;Humidity;BMP_temperature;BMP_pressure;BME280_temperature;BME280_humidity;BME280_pressure;Samples;Min_cycle;Max_cycle;Signal;HPM_P1;HPM_P2
2023/11/02 00:01:11;;;;;;;1.20;0.70;;;12.10;99.90;;;;;;5068597;28;20514;-63
2023/11/02 00:03:40;;;;;;;3.33;0.70;;;12.00;99.90;;;;;;5069291;28;20573;-64
2023/11/02 00:06:21;;;;;;;0.90;0.80;;;12.00;99.90;;;;;;5069894;28;20423;-63
2023/11/02 00:09:18;;;;;;;1.03;0.70;;;12.00;99.90;;;;;;5070639;28;20429;-64
2023/11/02 00:11:48;;;;;;;2.20;0.90;;;12.00;99.90;;;;;;5070994;28;20783;-62
2023/11/02 00:14:14;;;;;;;2.50;0.80;;;11.90;99.90;;;;;;5068996;28;20462;-62
2023/11/02 00:16:40;;;;;;;3.80;0.83;;;11.90;99.90;;;;;;5070198;28;21104;-62
2023/11/02 00:19:07;;;;;;;1.83;0.80;;;11.90;99.90;;;;;;5071016;28;20192;-62
2023/11/02 00:21:33;;;;;;;2.13;1.00;;;11.90;99.90;;;;;;5069398;28;20426;-63
2023/11/02 00:23:58;;;;;;;3.77;1.00;;;11.90;99.90;;;;;;5069999;28;20416;-62
2023/11/02 00:26:26;;;;;;;3.43;1.40;;;11.80;99.90;;;;;;5067796;28;20434;-63
2023/11/02 00:28:51;;;;;;;0.80;0.60;;;11.80;99.90;;;;;;5069608;28;20295;-61
2023/11/02 00:31:17;;;;;;;2.23;0.90;;;11.90;99.90;;;;;;5070831;28;20437;-62
2023/11/02 00:33:43;;;;;;;1.23;0.87;;;11.80;99.90;;;;;;5068636;28;20239;-63
2023/11/02 00:36:11;;;;;;;2.80;1.13;;;11.80;99.90;;;;;;5070674;28;20275;-61
2023/11/02 00:38:36;;;;;;;4.10;1.07;;;11.80;99.90;;;;;;5068832;28;20181;-62
2023/11/02 00:41:03;;;;;;;1.67;1.17;;;11.90;99.90;;;;;;5068546;28;20999;-64
2023/11/02 00:43:29;;;;;;;3.00;1.20;;;11.80;99.90;;;;;;5068833;28;20184;-64
2023/11/02 00:45:55;;;;;;;2.47;1.10;;;11.80;99.90;;;;;;5068076;28;20438;-62
2023/11/02 00:48:28;;;;;;;1.53;0.93;;;11.80;99.90;;;;;;5070366;28;20419;-62
2023/11/02 00:51:24;;;;;;;3.53;1.13;;;11.70;99.90;;;;;;5069776;28;20196;-62
2023/11/02 00:53:54;;;;;;;4.27;1.20;;;11.70;99.90;;;;;;5069336;28;20486;-61
2023/11/02 00:56:21;;;;;;;1.60;0.87;;;11.70;99.90;;;;;;5069890;28;20787;-62
2023/11/02 00:58:52;;;;;;;3.97;1.10;;;11.70;99.90;;;;;;5066866;28;20450;-62
2023/11/02 01:01:23;;;;;;;1.50;0.77;;;11.70;99.90;;;;;;5069573;28;20435;-62
2023/11/02 01:04:31;;;;;;;2.00;0.90;;;11.70;99.90;;;;;;5068575;28;20415;-64
2023/11/02 01:06:56;;;;;;;2.73;0.90;;;11.70;99.90;;;;;;5070271;28;20411;-62
2023/11/02 01:09:47;;;;;;;1.53;1.07;;;11.70;99.90;;;;;;5068908;28;20427;-63
2023/11/02 01:12:37;;;;;;;2.87;0.93;;;11.70;99.90;;;;;;5068957;28;20198;-62
2023/11/02 01:15:10;;;;;;;1.87;0.80;;;11.70;99.90;;;;;;5068805;28;21091;-63
2023/11/02 01:17:39;;;;;;;2.53;0.90;;;11.70;99.90;;;;;;5069455;28;20430;-63
2023/11/02 01:20:14;;;;;;;1.70;1.33;;;11.70;99.90;;;;;;5067255;28;20432;-63
2023/11/02 01:22:55;;;;;;;2.13;0.77;;;11.70;99.90;;;;;;5068842;28;20458;-63
2023/11/02 01:25:23;;;;;;;0.80;0.70;;;11.80;99.90;;;;;;5069862;28;20431;-63
2023/11/02 01:27:49;;;;;;;3.00;1.20;;;11.80;99.90;;;;;;5066685;28;20442;-63
2023/11/02 01:30:18;;;;;;;2.43;1.53;;;11.80;99.90;;;;;;5070060;28;20427;-64
2023/11/02 01:32:45;;;;;;;2.10;0.80;;;11.80;99.90;;;;;;5068036;28;20795;-61
2023/11/02 01:35:30;;;;;;;3.80;0.80;;;11.80;99.90;;;;;;5069468;28;20474;-61
2023/11/02 01:37:55;;;;;;;1.20;0.90;;;11.80;99.90;;;;;;5069484;28;20999;-62
2023/11/02 01:40:34;;;;;;;1.10;0.93;;;11.80;99.90;;;;;;5069415;28;20710;-62
2023/11/02 01:43:02;;;;;;;1.20;1.00;;;11.80;99.90;;;;;;5067816;28;20208;-63
2023/11/02 01:45:31;;;;;;;1.10;0.90;;;11.80;99.90;;;;;;5072337;28;20442;-63
2023/11/02 01:48:11;;;;;;;2.57;1.17;;;11.80;99.90;;;;;;5068680;28;20817;-63
2023/11/02 01:50:49;;;;;;;1.60;1.10;;;11.80;99.90;;;;;;5068758;28;20430;-63
2023/11/02 01:53:44;;;;;;;5.57;1.33;;;11.80;99.90;;;;;;5067144;28;20478;-62
2023/11/02 01:56:22;;;;;;;2.23;1.30;;;11.80;99.90;;;;;;5069332;28;20448;-63
2023/11/02 01:58:53;;;;;;;1.67;1.00;;;11.80;99.90;;;;;;5068650;28;20423;-64
2023/11/02 02:01:26;;;;;;;2.40;1.33;;;11.80;99.90;;;;;;5065837;28;20431;-62
2023/11/02 02:04:21;;;;;;;3.13;1.10;;;11.70;99.90;;;;;;5067958;28;20451;-61
2023/11/02 02:07:16;;;;;;;4.20;1.10;;;11.80;99.90;;;;;;5068075;28;20424;-62
2023/11/02 02:10:24;;;;;;;4.53;1.30;;;11.80;99.90;;;;;;5064007;28;20818;-63
2023/11/02 02:13:15;;;;;;;4.80;1.60;;;11.70;99.90;;;;;;5056569;28;21249;-63
2023/11/02 02:15:59;;;;;;;1.73;1.40;;;11.80;99.90;;;;;;5063591;28;20467;-62
2023/11/02 02:18:25;;;;;;;1.60;1.40;;;11.80;99.90;;;;;;5069709;28;20419;-62
2023/11/02 02:20:58;;;;;;;2.53;1.43;;;11.70;99.90;;;;;;5068280;28;20799;-62
2023/11/02 02:23:47;;;;;;;1.40;1.30;;;11.80;99.90;;;;;;5067981;28;20792;-64
2023/11/02 02:26:50;;;;;;;4.80;1.77;;;11.80;99.90;;;;;;5067077;28;20534;-63
2023/11/02 02:29:47;;;;;;;2.50;1.40;;;11.80;99.90;;;;;;5071592;28;20426;-62
2023/11/02 02:32:27;;;;;;;3.37;1.40;;;11.80;99.90;;;;;;5067099;28;20481;-62
2023/11/02 02:35:21;;;;;;;3.03;1.23;;;11.80;99.90;;;;;;5066977;28;20458;-64
2023/11/02 02:37:55;;;;;;;2.20;1.93;;;11.80;99.90;;;;;;5068457;28;20521;-62
2023/11/02 02:40:39;;;;;;;3.27;1.60;;;11.80;99.90;;;;;;5068580;28;20430;-64
2023/11/02 02:43:06;;;;;;;1.90;1.43;;;11.80;99.90;;;;;;5065743;28;20430;-61
2023/11/02 02:45:37;;;;;;;2.83;1.97;;;11.80;99.90;;;;;;5070591;28;20463;-63
2023/11/02 02:48:04;;;;;;;3.70;1.53;;;11.80;99.90;;;;;;5068549;28;20470;-64
2023/11/02 02:50:31;;;;;;;3.33;1.13;;;11.80;99.90;;;;;;5068172;28;20430;-62
2023/11/02 02:53:01;;;;;;;3.30;1.40;;;11.80;99.90;;;;;;5049376;28;20482;-62
2023/11/02 02:55:32;;;;;;;3.03;1.67;;;11.80;99.90;;;;;;5069054;28;20466;-64
2023/11/02 02:58:01;;;;;;;2.20;1.40;;;11.80;99.90;;;;;;5068773;28;20509;-61
2023/11/02 03:00:31;;;;;;;3.67;1.80;;;11.80;99.90;;;;;;5068416;28;20434;-63
2023/11/02 03:02:58;;;;;;;3.23;1.60;;;11.80;99.90;;;;;;5067328;28;20433;-64
2023/11/02 03:05:28;;;;;;;2.63;1.37;;;11.80;99.90;;;;;;5067375;28;20833;-63
2023/11/02 03:08:01;;;;;;;2.53;1.70;;;11.80;99.90;;;;;;5067115;28;20515;-62
2023/11/02 03:10:28;;;;;;;3.60;1.40;;;11.80;99.90;;;;;;5068819;28;20481;-61
2023/11/02 03:12:57;;;;;;;4.30;2.20;;;11.80;99.90;;;;;;5066252;28;20458;-65
2023/11/02 03:15:28;;;;;;;3.30;1.70;;;11.80;99.90;;;;;;5071741;28;20493;-63
2023/11/02 03:18:09;;;;;;;4.17;1.20;;;11.80;99.90;;;;;;5071784;28;20427;-63
2023/11/02 03:20:35;;;;;;;3.77;1.43;;;11.80;99.90;;;;;;5074944;28;20430;-62
2023/11/02 03:23:17;;;;;;;4.13;1.37;;;11.80;99.90;;;;;;5070945;28;20438;-63
2023/11/02 03:25:49;;;;;;;2.37;1.50;;;11.80;99.90;;;;;;5074557;28;20218;-63
2023/11/02 03:28:54;;;;;;;3.17;1.53;;;11.80;99.90;;;;;;5072235;28;20442;-62
2023/11/02 03:31:37;;;;;;;3.40;1.50;;;11.80;99.90;;;;;;5070498;28;20439;-63
2023/11/02 03:34:15;;;;;;;3.97;1.27;;;11.80;99.90;;;;;;5073365;28;20599;-61
2023/11/02 03:36:57;;;;;;;2.80;1.60;;;11.80;99.90;;;;;;5071887;28;21203;-63
2023/11/02 03:39:29;;;;;;;4.23;1.07;;;11.80;99.90;;;;;;5072442;28;20427;-64
2023/11/02 03:42:14;;;;;;;4.90;1.40;;;11.80;99.90;;;;;;5072945;28;20419;-64
2023/11/02 03:44:43;;;;;;;3.33;1.50;;;11.90;99.90;;;;;;5071416;28;20427;-62
2023/11/02 03:47:28;;;;;;;3.33;1.50;;;11.80;99.90;;;;;;5070511;28;20508;-61
2023/11/02 03:50:15;;;;;;;6.13;1.20;;;11.80;99.90;;;;;;5071971;28;20415;-61
2023/11/02 03:52:53;;;;;;;4.30;1.67;;;11.80;99.90;;;;;;5070708;28;20424;-63
2023/11/02 03:55:52;;;;;;;2.80;1.23;;;11.80;99.90;;;;;;5068198;28;20485;-62
2023/11/02 03:58:37;;;;;;;2.47;1.33;;;11.80;99.90;;;;;;5071154;28;20988;-64
2023/11/02 04:01:18;;;;;;;1.80;1.27;;;11.80;99.90;;;;;;5071059;28;20455;-62
2023/11/02 04:03:49;;;;;;;3.13;1.30;;;11.70;99.90;;;;;;5070546;28;20423;-64
2023/11/02 04:06:20;;;;;;;6.20;1.33;;;11.70;99.90;;;;;;5071326;28;21282;-63
2023/11/02 04:08:49;;;;;;;3.80;1.17;;;11.60;99.90;;;;;;5069140;28;20435;-63
2023/11/02 04:11:31;;;;;;;5.43;1.10;;;11.60;99.90;;;;;;5069955;28;20438;-63
2023/11/02 04:14:16;;;;;;;1.83;1.00;;;11.60;99.90;;;;;;5070629;28;20972;-63
2023/11/02 04:16:42;;;;;;;1.43;1.00;;;11.60;99.90;;;;;;5071401;28;20424;-63
2023/11/02 04:19:08;;;;;;;2.37;1.40;;;11.60;99.90;;;;;;5071551;28;20757;-62
2023/11/02 04:21:35;;;;;;;2.57;1.03;;;11.60;99.90;;;;;;5070116;28;20426;-63
2023/11/02 04:24:00;;;;;;;6.40;1.33;;;11.70;99.90;;;;;;5073033;28;21297;-62
2023/11/02 04:26:28;;;;;;;2.57;1.20;;;11.70;99.90;;;;;;5070009;28;20429;-64
2023/11/02 04:28:55;;;;;;;1.97;1.00;;;11.70;99.90;;;;;;5070649;28;20530;-63
2023/11/02 04:31:20;;;;;;;2.10;1.43;;;11.70;99.90;;;;;;5070168;28;20420;-63
2023/11/02 04:33:46;;;;;;;3.90;1.10;;;11.70;99.90;;;;;;5066206;28;20438;-62
2023/11/02 04:36:12;;;;;;;1.63;0.70;;;11.70;99.90;;;;;;5070537;28;20187;-62
2023/11/02 04:38:37;;;;;;;3.57;1.23;;;11.80;99.90;;;;;;5070831;28;20183;-62
2023/11/02 04:41:03;;;;;;;1.53;0.80;;;11.80;99.90;;;;;;5069184;28;20192;-62
2023/11/02 04:43:29;;;;;;;2.47;1.00;;;11.80;99.90;;;;;;5069993;28;20282;-62
2023/11/02 04:45:55;;;;;;;5.37;1.00;;;11.80;99.90;;;;;;5074136;28;20205;-63
2023/11/02 04:48:22;;;;;;;1.50;1.20;;;11.70;99.90;;;;;;5069797;28;21060;-64
2023/11/02 04:50:56;;;;;;;1.90;0.80;;;11.70;99.90;;;;;;5070980;28;20189;-62
2023/11/02 04:53:22;;;;;;;1.70;1.10;;;11.80;99.90;;;;;;5068291;28;20787;-63
2023/11/02 04:55:51;;;;;;;2.80;1.20;;;11.80;99.90;;;;;;5069354;28;20470;-64
2023/11/02 04:58:16;;;;;;;1.80;0.90;;;11.80;99.90;;;;;;5069855;28;20457;-63
2023/11/02 05:00:42;;;;;;;3.03;1.00;;;11.80;99.90;;;;;;5070204;28;20531;-63
2023/11/02 05:03:08;;;;;;;2.53;1.13;;;11.80;99.90;;;;;;5069779;28;20890;-64
2023/11/02 05:05:34;;;;;;;4.40;1.53;;;11.80;99.90;;;;;;5069976;28;20212;-64
2023/11/02 05:08:00;;;;;;;3.17;1.00;;;11.80;99.90;;;;;;5069070;28;20184;-64
2023/11/02 05:10:25;;;;;;;3.40;0.90;;;11.70;99.90;;;;;;5069861;28;20851;-63
2023/11/02 05:12:51;;;;;;;1.10;1.00;;;11.70;99.90;;;;;;5069528;28;20193;-63
2023/11/02 05:15:16;;;;;;;3.00;0.83;;;11.70;99.90;;;;;;5070023;28;20218;-62
2023/11/02 05:17:42;;;;;;;1.00;0.93;;;11.70;99.90;;;;;;5069848;28;20177;-62
2023/11/02 05:20:09;;;;;;;1.37;1.20;;;11.70;99.90;;;;;;5070042;28;20304;-64
2023/11/02 05:22:34;;;;;;;2.07;1.03;;;11.70;99.90;;;;;;5068929;28;20189;-62
2023/11/02 05:25:00;;;;;;;2.37;0.70;;;11.70;99.90;;;;;;5070503;28;20514;-64
2023/11/02 05:27:26;;;;;;;3.53;0.87;;;11.70;99.90;;;;;;5067392;28;20196;-63
2023/11/02 05:29:51;;;;;;;2.90;0.90;;;11.70;99.90;;;;;;5066197;28;20944;-63
2023/11/02 05:32:17;;;;;;;4.60;1.23;;;11.70;99.90;;;;;;5067749;28;20837;-64
2023/11/02 05:34:43;;;;;;;2.23;1.00;;;11.80;99.90;;;;;;5067898;28;20213;-62
2023/11/02 05:37:09;;;;;;;1.20;0.97;;;11.80;99.90;;;;;;5069159;28;20192;-63
2023/11/02 05:39:35;;;;;;;3.47;1.20;;;11.80;99.90;;;;;;5067912;28;20418;-64
2023/11/02 05:42:00;;;;;;;4.23;1.13;;;11.80;99.90;;;;;;5067330;28;20254;-64
2023/11/02 05:44:26;;;;;;;2.00;0.80;;;11.80;99.90;;;;;;5067838;28;20176;-64
2023/11/02 05:46:55;;;;;;;1.07;0.93;;;11.70;99.90;;;;;;5067770;28;20188;-62
2023/11/02 05:49:20;;;;;;;2.70;1.20;;;11.80;99.90;;;;;;5067564;28;20260;-63
2023/11/02 05:51:47;;;;;;;3.07;1.00;;;11.80;99.90;;;;;;5066471;28;20558;-63
2023/11/02 05:54:13;;;;;;;1.50;0.90;;;11.80;99.90;;;;;;5066488;28;20251;-63
2023/11/02 05:56:38;;;;;;;1.83;0.80;;;11.80;99.90;;;;;;5069123;28;20728;-63
2023/11/02 05:59:05;;;;;;;1.57;1.10;;;11.90;99.90;;;;;;5069303;28;20193;-64
2023/11/02 06:01:31;;;;;;;2.30;1.20;;;11.80;99.90;;;;;;5071911;28;20243;-63
2023/11/02 06:03:58;;;;;;;1.47;0.77;;;11.80;99.90;;;;;;5069708;28;20470;-64
2023/11/02 06:06:24;;;;;;;1.30;0.80;;;11.80;99.90;;;;;;5069908;28;20522;-63
2023/11/02 06:08:50;;;;;;;4.50;0.93;;;11.80;99.90;;;;;;5067395;28;20751;-65
2023/11/02 06:11:16;;;;;;;2.17;0.80;;;11.80;99.90;;;;;;5069655;28;20549;-62
2023/11/02 06:13:42;;;;;;;4.73;1.03;;;11.90;99.90;;;;;;5071728;28;20192;-63
2023/11/02 06:16:09;;;;;;;2.07;1.10;;;11.90;99.90;;;;;;5070664;28;20422;-64
2023/11/02 06:18:35;;;;;;;3.00;1.17;;;11.90;99.90;;;;;;5068620;28;20217;-63
2023/11/02 06:21:01;;;;;;;2.20;1.10;;;11.90;99.90;;;;;;5071526;28;20442;-63
2023/11/02 06:23:26;;;;;;;1.87;0.87;;;11.90;99.90;;;;;;5070753;28;20701;-64
2023/11/02 06:25:52;;;;;;;4.63;0.90;;;11.90;99.90;;;;;;5068761;28;20204;-63
2023/11/02 06:28:19;;;;;;;2.00;1.00;;;12.00;99.90;;;;;;5069062;28;20558;-63
2023/11/02 06:30:45;;;;;;;1.30;0.60;;;11.90;99.90;;;;;;5069055;28;20839;-64
2023/11/02 06:33:23;;;;;;;2.77;0.83;;;12.00;99.90;;;;;;5085246;28;20495;-62
2023/11/02 06:35:49;;;;;;;1.60;0.80;;;12.00;99.90;;;;;;5069461;28;20949;-64
2023/11/02 06:38:15;;;;;;;2.73;0.90;;;12.00;99.90;;;;;;5069540;28;20423;-62
2023/11/02 06:40:41;;;;;;;4.07;1.17;;;12.00;99.90;;;;;;5067049;28;20278;-64
2023/11/02 06:43:07;;;;;;;1.53;0.80;;;12.00;99.90;;;;;;5064868;28;20538;-63
2023/11/02 06:45:32;;;;;;;2.30;0.87;;;12.10;99.90;;;;;;5068004;28;20434;-64
2023/11/02 06:47:58;;;;;;;3.83;0.90;;;12.10;99.90;;;;;;5071256;28;20181;-64
2023/11/02 06:50:24;;;;;;;2.20;0.90;;;12.10;99.90;;;;;;5068270;28;20600;-62
2023/11/02 06:52:50;;;;;;;1.40;0.63;;;12.10;99.90;;;;;;5064718;28;20173;-64
2023/11/02 06:55:15;;;;;;;3.73;0.80;;;12.20;99.90;;;;;;5065112;28;20533;-63
2023/11/02 06:57:41;;;;;;;0.90;0.80;;;12.20;99.90;;;;;;5067444;28;20561;-64
2023/11/02 07:00:09;;;;;;;0.70;0.70;;;12.20;99.90;;;;;;5069097;28;20196;-64
2023/11/02 07:02:36;;;;;;;1.30;1.00;;;12.20;99.90;;;;;;5068470;28;20192;-64
2023/11/02 07:05:06;;;;;;;8.90;1.20;;;12.20;99.90;;;;;;5066630;28;20530;-65
2023/11/02 07:07:35;;;;;;;2.77;1.00;;;12.20;99.90;;;;;;5066666;28;20431;-62
2023/11/02 07:10:04;;;;;;;1.43;0.70;;;12.30;99.90;;;;;;5066297;28;20430;-64
2023/11/02 07:12:30;;;;;;;0.90;0.70;;;12.30;99.90;;;;;;5066805;28;20526;-63
2023/11/02 07:14:55;;;;;;;2.60;0.90;;;12.30;99.90;;;;;;5065406;28;20467;-64
2023/11/02 07:17:22;;;;;;;1.43;0.70;;;12.40;99.90;;;;;;5067944;28;20511;-64
2023/11/02 07:19:48;;;;;;;2.13;1.30;;;12.30;99.90;;;;;;5067910;28;20180;-63
2023/11/02 07:22:14;;;;;;;2.70;0.70;;;12.40;99.90;;;;;;5071900;28;20427;-65
2023/11/02 07:24:39;;;;;;;2.77;0.73;;;12.40;99.90;;;;;;5067598;28;20418;-63
2023/11/02 07:27:07;;;;;;;0.80;0.60;;;12.40;99.90;;;;;;5067316;28;20492;-64
2023/11/02 07:29:33;;;;;;;1.53;0.70;;;12.40;99.90;;;;;;5068001;28;20791;-63
2023/11/02 07:31:59;;;;;;;1.00;0.70;;;12.40;99.90;;;;;;5067879;28;20430;-63
2023/11/02 07:34:24;;;;;;;1.60;0.70;;;12.40;99.90;;;;;;5067796;28;20217;-65
2023/11/02 07:36:52;;;;;;;1.10;0.57;;;12.30;99.90;;;;;;5067827;28;20279;-64
2023/11/02 07:39:17;;;;;;;1.20;0.60;;;12.20;99.90;;;;;;5067729;28;20785;-64
2023/11/02 07:41:43;;;;;;;1.70;0.90;;;12.10;99.90;;;;;;5070084;28;20423;-64
2023/11/02 07:44:09;;;;;;;2.30;1.43;;;12.00;99.90;;;;;;5067566;28;20216;-64
2023/11/02 07:46:34;;;;;;;5.93;1.87;;;11.90;99.90;;;;;;5068723;28;20177;-63
2023/11/02 07:49:00;;;;;;;2.33;0.80;;;11.80;99.90;;;;;;5068037;28;20244;-64
2023/11/02 07:51:26;;;;;;;1.03;0.93;;;11.70;99.90;;;;;;5071820;28;20266;-62
2023/11/02 07:53:51;;;;;;;2.67;1.20;;;11.60;99.90;;;;;;5066553;28;20181;-64
2023/11/02 07:56:17;;;;;;;2.50;0.80;;;11.60;99.90;;;;;;5067721;28;20192;-63
2023/11/02 07:58:43;;;;;;;1.80;0.73;;;11.50;99.90;;;;;;5068949;28;20185;-63
2023/11/02 08:01:09;;;;;;;1.23;0.80;;;11.50;99.90;;;;;;5069019;28;20209;-63
2023/11/02 08:03:35;;;;;;;1.03;0.80;;;11.50;99.90;;;;;;5072583;28;20843;-64
2023/11/02 08:06:01;;;;;;;2.10;0.83;;;11.50;99.90;;;;;;5072012;28;20425;-64
2023/11/02 08:08:27;;;;;;;0.80;0.60;;;11.50;99.90;;;;;;5069972;28;20714;-63
2023/11/02 08:10:52;;;;;;;1.37;0.60;;;11.50;99.90;;;;;;5075210;28;20479;-64
2023/11/02 08:13:18;;;;;;;0.70;0.60;;;11.50;99.90;;;;;;5070718;28;20223;-64
2023/11/02 08:15:44;;;;;;;2.30;0.77;;;11.50;99.90;;;;;;5072324;28;20213;-63
2023/11/02 08:18:11;;;;;;;1.10;0.63;;;11.50;99.90;;;;;;5071100;28;20430;-63
2023/11/02 08:20:36;;;;;;;1.20;0.83;;;11.50;99.90;;;;;;5073923;28;20425;-65
2023/11/02 08:23:02;;;;;;;0.63;0.60;;;11.40;99.90;;;;;;5071005;28;21107;-65
2023/11/02 08:25:28;;;;;;;1.67;0.70;;;11.50;99.90;;;;;;5071663;28;20216;-63
2023/11/02 08:27:59;;;;;;;1.33;0.80;;;11.50;99.90;;;;;;5075142;28;20185;-65
2023/11/02 08:30:25;;;;;;;2.90;0.77;;;11.50;99.90;;;;;;5069566;28;20655;-64
2023/11/02 08:32:54;;;;;;;2.50;0.93;;;11.60;99.90;;;;;;5070690;28;20454;-63
2023/11/02 08:35:21;;;;;;;1.30;0.90;;;11.60;99.90;;;;;;5070553;28;20477;-65
2023/11/02 08:37:48;;;;;;;1.00;0.73;;;11.60;99.90;;;;;;5070462;28;20974;-63
2023/11/02 08:40:15;;;;;;;1.60;0.80;;;11.60;99.90;;;;;;5070325;28;20545;-65
2023/11/02 08:42:41;;;;;;;2.40;0.70;;;11.60;99.90;;;;;;5069485;28;20427;-63
2023/11/02 08:45:08;;;;;;;2.93;0.90;;;11.70;99.90;;;;;;5069119;28;20466;-63
2023/11/02 08:47:34;;;;;;;1.53;0.80;;;11.70;99.90;;;;;;5071129;28;20424;-62
2023/11/02 08:50:00;;;;;;;3.07;0.80;;;11.70;99.90;;;;;;5070946;28;20441;-63
2023/11/02 08:52:27;;;;;;;1.03;0.80;;;11.80;99.90;;;;;;5069972;28;20427;-65
2023/11/02 08:54:53;;;;;;;2.20;0.97;;;11.70;99.90;;;;;;5067809;28;20817;-64
2023/11/02 08:57:18;;;;;;;1.50;0.73;;;11.80;99.90;;;;;;5069790;28;20430;-64
2023/11/02 08:59:44;;;;;;;2.30;0.90;;;11.80;99.90;;;;;;5071419;28;20430;-64
2023/11/02 09:02:10;;;;;;;2.10;1.23;;;11.80;99.90;;;;;;5070110;28;20189;-65
2023/11/02 09:04:36;;;;;;;2.77;0.90;;;11.80;99.90;;;;;;5069446;28;20181;-63
2023/11/02 09:07:02;;;;;;;1.77;0.93;;;11.80;99.90;;;;;;5073400;28;20568;-63
2023/11/02 09:09:28;;;;;;;2.00;0.53;;;11.80;99.90;;;;;;5067903;28;20193;-65
2023/11/02 09:11:54;;;;;;;2.73;1.20;;;11.90;99.90;;;;;;5070559;28;21110;-65
2023/11/02 09:14:20;;;;;;;2.03;0.93;;;11.90;99.90;;;;;;5068742;28;20220;-64
2023/11/02 09:16:47;;;;;;;1.00;0.90;;;12.00;99.90;;;;;;5073306;28;21081;-64
2023/11/02 09:19:12;;;;;;;2.10;0.77;;;12.00;99.90;;;;;;5069186;28;20989;-63
2023/11/02 09:21:38;;;;;;;1.27;0.80;;;12.00;99.90;;;;;;5069009;28;20483;-65
2023/11/02 09:24:04;;;;;;;5.83;0.77;;;12.10;99.90;;;;;;5069318;28;20922;-65
2023/11/02 09:26:30;;;;;;;1.40;0.80;;;12.10;99.90;;;;;;5069352;28;20185;-65
2023/11/02 09:28:56;;;;;;;1.00;0.80;;;12.20;99.90;;;;;;5069999;28;20693;-64
2023/11/02 09:31:22;;;;;;;4.03;0.80;;;12.20;99.90;;;;;;5069274;28;20426;-62
2023/11/02 09:33:48;;;;;;;2.00;0.60;;;12.30;99.90;;;;;;5068569;28;20414;-63
2023/11/02 09:36:14;;;;;;;1.83;0.80;;;12.30;99.90;;;;;;5067250;28;20497;-63
2023/11/02 09:38:41;;;;;;;2.90;0.80;;;12.40;99.90;;;;;;5069970;28;20422;-62
2023/11/02 09:41:07;;;;;;;2.13;0.90;;;12.40;99.90;;;;;;5066543;28;20427;-65
2023/11/02 09:43:34;;;;;;;1.40;0.90;;;12.40;99.90;;;;;;5066708;28;20496;-63
2023/11/02 09:46:01;;;;;;;1.57;0.67;;;12.40;99.90;;;;;;5069123;28;20172;-64
2023/11/02 09:48:27;;;;;;;1.40;0.70;;;12.50;99.90;;;;;;5052825;28;20415;-65
2023/11/02 09:50:52;;;;;;;1.43;0.73;;;12.50;99.90;;;;;;5068480;28;20426;-65
2023/11/02 09:53:18;;;;;;;5.27;0.80;;;12.50;99.90;;;;;;5066649;28;20426;-64
2023/11/02 09:55:44;;;;;;;1.37;0.83;;;12.60;99.90;;;;;;5069849;28;20220;-64
2023/11/02 09:58:11;;;;;;;1.50;1.00;;;12.50;99.90;;;;;;5072104;28;20959;-64
2023/11/02 10:00:37;;;;;;;1.07;0.67;;;12.60;99.90;;;;;;5069090;28;20177;-64
2023/11/02 10:03:03;;;;;;;1.70;0.83;;;12.60;99.90;;;;;;5067213;28;20458;-63
2023/11/02 10:05:29;;;;;;;2.60;0.90;;;12.60;99.90;;;;;;5071885;28;20529;-64
2023/11/02 10:07:55;;;;;;;3.40;0.73;;;12.60;99.90;;;;;;5069339;28;20185;-64
2023/11/02 10:10:21;;;;;;;3.50;1.07;;;12.70;99.90;;;;;;5068550;28;20709;-64
2023/11/02 10:12:47;;;;;;;1.33;0.73;;;12.70;99.90;;;;;;5068357;28;20616;-64
2023/11/02 10:15:16;;;;;;;1.53;0.80;;;12.70;99.90;;;;;;5068904;28;20467;-64
2023/11/02 10:17:42;;;;;;;1.70;0.80;;;12.70;99.90;;;;;;5068775;28;20194;-64
2023/11/02 10:20:12;;;;;;;2.17;0.77;;;12.80;99.90;;;;;;5068383;28;21012;-65
2023/11/02 10:22:39;;;;;;;2.00;0.70;;;12.80;99.90;;;;;;5070326;28;20187;-64
2023/11/02 10:25:06;;;;;;;4.83;0.80;;;12.80;99.90;;;;;;5067891;28;20419;-64
2023/11/02 10:27:32;;;;;;;1.63;0.90;;;12.90;99.90;;;;;;5068031;28;20430;-64
2023/11/02 10:29:58;;;;;;;1.43;1.00;;;12.90;99.90;;;;;;5066881;28;20424;-63
2023/11/02 10:32:23;;;;;;;1.90;1.03;;;13.00;99.90;;;;;;5067672;28;20529;-64
2023/11/02 10:34:52;;;;;;;1.60;0.87;;;13.00;99.90;;;;;;5066438;28;20604;-63
2023/11/02 10:37:32;;;;;;;1.77;1.00;;;13.10;99.90;;;;;;5067667;28;20180;-65
2023/11/02 10:39:58;;;;;;;4.83;1.20;;;13.10;99.90;;;;;;5068677;28;20431;-63
2023/11/02 10:42:28;;;;;;;2.90;1.00;;;13.10;99.90;;;;;;5064430;28;20458;-64
2023/11/02 10:44:56;;;;;;;5.90;1.03;;;13.20;99.90;;;;;;5067688;28;20462;-64
2023/11/02 10:47:27;;;;;;;2.10;0.80;;;13.20;99.90;;;;;;5068145;28;20431;-63
2023/11/02 10:49:55;;;;;;;3.20;0.73;;;13.30;99.90;;;;;;5072118;28;20503;-63
2023/11/02 10:52:47;;;;;;;1.47;0.77;;;13.30;99.90;;;;;;5067450;28;21024;-63
2023/11/02 10:55:38;;;;;;;5.83;1.10;;;13.40;99.90;;;;;;5068130;28;20520;-65
2023/11/02 10:58:06;;;;;;;4.73;1.60;;;13.50;99.90;;;;;;5071974;28;20791;-63
2023/11/02 11:00:33;;;;;;;2.83;0.83;;;13.50;99.90;;;;;;5067463;28;20784;-65
2023/11/02 11:03:01;;;;;;;1.07;0.80;;;13.50;99.90;;;;;;5066492;28;20833;-63
2023/11/02 11:05:28;;;;;;;2.60;0.73;;;13.50;99.90;;;;;;5067554;28;20516;-63
2023/11/02 11:08:02;;;;;;;2.50;0.90;;;13.60;99.90;;;;;;5067950;28;21042;-65
2023/11/02 11:10:30;;;;;;;1.63;0.80;;;13.60;99.90;;;;;;5067704;28;20432;-63
2023/11/02 11:12:56;;;;;;;4.77;1.00;;;13.70;99.90;;;;;;5064983;28;20431;-63
2023/11/02 11:15:23;;;;;;;5.07;1.13;;;13.70;99.90;;;;;;5067749;28;20467;-63
2023/11/02 11:17:49;;;;;;;1.23;0.80;;;13.80;99.90;;;;;;5068005;28;20506;-63
2023/11/02 11:20:16;;;;;;;2.07;1.00;;;13.80;99.90;;;;;;5066945;28;20423;-65
2023/11/02 11:22:45;;;;;;;2.17;0.80;;;13.80;99.90;;;;;;5066982;28;20458;-64
2023/11/02 11:25:11;;;;;;;3.87;1.00;;;13.90;99.90;;;;;;5066775;28;20419;-63
2023/11/02 11:27:42;;;;;;;6.00;0.90;;;13.90;99.90;;;;;;5065643;28;20462;-63
2023/11/02 11:30:31;;;;;;;2.03;0.97;;;13.90;99.90;;;;;;5067709;28;20853;-64
2023/11/02 11:32:57;;;;;;;1.47;0.70;;;13.90;99.90;;;;;;5059516;28;20446;-64
2023/11/02 11:35:23;;;;;;;2.57;0.90;;;14.00;99.90;;;;;;5071301;28;20467;-64
2023/11/02 11:37:52;;;;;;;1.73;0.77;;;14.00;99.90;;;;;;5070288;28;21237;-64
2023/11/02 11:40:20;;;;;;;4.90;1.20;;;14.00;99.90;;;;;;5071118;28;20997;-64
2023/11/02 11:42:52;;;;;;;3.07;0.87;;;14.00;99.90;;;;;;5069970;28;20517;-64
2023/11/02 11:45:46;;;;;;;4.40;0.97;;;14.00;99.90;;;;;;5069122;28;20427;-65
2023/11/02 11:48:38;;;;;;;3.17;0.97;;;14.20;99.90;;;;;;5071100;28;20521;-63
2023/11/02 11:51:41;;;;;;;3.80;0.80;;;14.40;99.90;;;;;;5070210;28;20425;-64
2023/11/02 11:54:11;;;;;;;1.70;0.70;;;14.50;99.90;;;;;;5065789;28;20435;-62
2023/11/02 11:56:38;;;;;;;1.20;0.50;;;14.70;99.90;;;;;;5071081;28;20415;-62
2023/11/02 11:59:04;;;;;;;2.70;1.40;;;14.90;99.90;;;;;;5070708;28;20510;-64
2023/11/02 12:01:30;;;;;;;3.90;0.90;;;14.90;99.90;;;;;;5070506;28;20426;-64
2023/11/02 12:03:57;;;;;;;6.73;1.10;;;15.00;99.90;;;;;;5073157;28;20184;-64
2023/11/02 12:06:47;;;;;;;3.80;1.00;;;15.00;99.90;;;;;;5070783;28;20987;-62
2023/11/02 12:09:13;;;;;;;1.93;0.97;;;15.00;99.90;;;;;;5070793;28;20431;-64
2023/11/02 12:11:41;;;;;;;3.40;0.97;;;15.00;99.90;;;;;;5070431;28;20566;-63
2023/11/02 12:14:14;;;;;;;4.27;1.93;;;15.10;99.90;;;;;;5069315;28;20443;-64
2023/11/02 12:16:41;;;;;;;3.93;1.90;;;15.10;99.90;;;;;;5069675;28;20963;-63
2023/11/02 12:19:08;;;;;;;2.40;1.40;;;15.20;99.90;;;;;;5070309;28;20496;-63
2023/11/02 12:21:35;;;;;;;3.33;1.13;;;15.30;99.90;;;;;;5070409;28;21069;-64
2023/11/02 12:24:01;;;;;;;2.23;0.83;;;15.50;99.90;;;;;;5068614;28;20699;-62
2023/11/02 12:26:28;;;;;;;3.40;1.63;;;15.50;99.90;;;;;;5067969;28;20431;-64
2023/11/02 12:28:56;;;;;;;1.97;0.90;;;15.40;99.90;;;;;;5070470;28;20195;-63
2023/11/02 12:31:31;;;;;;;1.90;1.07;;;15.30;99.90;;;;;;5068854;28;20458;-63
2023/11/02 12:34:02;;;;;;;3.13;1.23;;;15.20;99.90;;;;;;5066584;28;20419;-64
2023/11/02 12:36:28;;;;;;;3.90;1.40;;;15.10;99.90;;;;;;5067855;28;20770;-64
2023/11/02 12:38:55;;;;;;;8.53;1.60;;;15.00;99.90;;;;;;5070045;28;20513;-63
2023/11/02 12:41:28;;;;;;;2.90;0.77;;;15.00;99.90;;;;;;5066302;28;20419;-64
2023/11/02 12:43:57;;;;;;;4.63;1.20;;;15.00;99.90;;;;;;5067758;28;20463;-64
2023/11/02 12:46:23;;;;;;;8.10;1.73;;;15.00;99.90;;;;;;5067681;28;20505;-64
2023/11/02 12:48:49;;;;;;;2.27;1.33;;;15.00;99.90;;;;;;5070074;28;20800;-64
2023/11/02 12:51:22;;;;;;;9.23;1.57;;;15.00;99.90;;;;;;5069079;28;20219;-65
2023/11/02 12:53:50;;;;;;;3.87;2.03;;;15.00;99.90;;;;;;5069017;28;20422;-64
2023/11/02 12:56:26;;;;;;;6.13;1.43;;;15.10;99.90;;;;;;5067458;28;20515;-62
2023/11/02 12:58:59;;;;;;;2.20;0.83;;;15.00;99.90;;;;;;5068589;28;20418;-63
2023/11/02 13:01:47;;;;;;;2.97;1.20;;;15.20;99.90;;;;;;5068726;28;20996;-64
2023/11/02 13:04:17;;;;;;;3.77;1.77;;;15.30;99.90;;;;;;5066937;28;20411;-63